sensor_id;sensor_type;location;lat;lon;timestamp;P1;durP1;ratioP1;P2;durP2;ratioP2
67274;SDS011;55463;52.324;5.122;2023-08-07T00:02:24;5.03;;;1.90;;
67274;SDS011;55463;52.324;5.122;2023-08-07T00:04:50;6.10;;;2.13;;
67274;SDS011;55463;52.324;5.122;2023-08-07T00:07:15;13.18;;;2.40;;
67274;SDS011;55463;52.324;5.122;2023-08-07T00:09:41;13.98;;;2.63;;
67274;SDS011;55463;52.324;5.122;2023-08-07T00:12:06;8.45;;;2.45;;
67274;SDS011;55463;52.324;5.122;2023-08-07T00:14:31;7.55;;;2.47;;
67274;SDS011;55463;52.324;5.122;2023-08-07T00:16:57;11.80;;;2.63;;
67274;SDS011;55463;52.324;5.122;2023-08-07T00:19:22;14.35;;;2.38;;
67274;SDS011;55463;52.324;5.122;2023-08-07T00:21:48;11.65;;;2.72;;
67274;SDS011;55463;52.324;5.122;2023-08-07T00:24:13;13.15;;;3.42;;
67274;SDS011;55463;52.324;5.122;2023-08-07T00:26:39;12.63;;;2.92;;
67274;SDS011;55463;52.324;5.122;2023-08-07T00:29:04;16.33;;;3.15;;
67274;SDS011;55463;52.324;5.122;2023-08-07T00:31:29;14.77;;;2.95;;
67274;SDS011;55463;52.324;5.122;2023-08-07T00:33:57;12.70;;;3.20;;
67274;SDS011;55463;52.324;5.122;2023-08-07T00:36:22;16.27;;;3.40;;
67274;SDS011;55463;52.324;5.122;2023-08-07T00:38:48;12.65;;;2.78;;
67274;SDS011;55463;52.324;5.122;2023-08-07T00:41:13;14.30;;;2.92;;
67274;SDS011;55463;52.324;5.122;2023-08-07T00:43:39;19.05;;;3.67;;
67274;SDS011;55463;52.324;5.122;2023-08-07T00:46:04;12.45;;;3.03;;
67274;SDS011;55463;52.324;5.122;2023-08-07T00:48:30;14.23;;;2.67;;
67274;SDS011;55463;52.324;5.122;2023-08-07T00:50:56;22.23;;;3.55;;
67274;SDS011;55463;52.324;5.122;2023-08-07T00:53:22;13.57;;;2.90;;
67274;SDS011;55463;52.324;5.122;2023-08-07T00:55:48;10.43;;;2.47;;
67274;SDS011;55463;52.324;5.122;2023-08-07T00:58:14;11.40;;;2.55;;
67274;SDS011;55463;52.324;5.122;2023-08-07T01:00:39;17.23;;;3.10;;
67274;SDS011;55463;52.324;5.122;2023-08-07T01:03:07;11.38;;;2.90;;
67274;SDS011;55463;52.324;5.122;2023-08-07T01:05:32;18.17;;;2.63;;
67274;SDS011;55463;52.324;5.122;2023-08-07T01:07:59;12.02;;;2.92;;
67274;SDS011;55463;52.324;5.122;2023-08-07T01:13:37;16.15;;;3.08;;
67274;SDS011;55463;52.324;5.122;2023-08-07T01:16:33;11.38;;;2.70;;
67274;SDS011;55463;52.324;5.122;2023-08-07T01:19:01;12.70;;;2.70;;
67274;SDS011;55463;52.324;5.122;2023-08-07T01:21:28;14.20;;;2.72;;
67274;SDS011;55463;52.324;5.122;2023-08-07T01:23:53;13.13;;;2.83;;
67274;SDS011;55463;52.324;5.122;2023-08-07T01:26:19;15.52;;;2.70;;
67274;SDS011;55463;52.324;5.122;2023-08-07T01:28:58;19.50;;;3.97;;
67274;SDS011;55463;52.324;5.122;2023-08-07T01:31:31;18.23;;;3.05;;
67274;SDS011;55463;52.324;5.122;2023-08-07T01:33:59;11.70;;;2.50;;
67274;SDS011;55463;52.324;5.122;2023-08-07T01:36:29;11.13;;;2.85;;
67274;SDS011;55463;52.324;5.122;2023-08-07T01:38:59;10.38;;;2.92;;
67274;SDS011;55463;52.324;5.122;2023-08-07T01:41:26;11.32;;;2.58;;
67274;SDS011;55463;52.324;5.122;2023-08-07T01:43:52;12.23;;;2.45;;
67274;SDS011;55463;52.324;5.122;2023-08-07T01:46:18;12.23;;;2.40;;
67274;SDS011;55463;52.324;5.122;2023-08-07T01:48:44;13.82;;;3.00;;
67274;SDS011;55463;52.324;5.122;2023-08-07T01:51:10;13.30;;;2.70;;
67274;SDS011;55463;52.324;5.122;2023-08-07T01:53:35;11.93;;;2.95;;
67274;SDS011;55463;52.324;5.122;2023-08-07T01:56:00;10.50;;;2.50;;
67274;SDS011;55463;52.324;5.122;2023-08-07T01:58:26;6.82;;;2.30;;
67274;SDS011;55463;52.324;5.122;2023-08-07T02:00:51;10.15;;;2.25;;
67274;SDS011;55463;52.324;5.122;2023-08-07T02:03:17;13.38;;;2.45;;
67274;SDS011;55463;52.324;5.122;2023-08-07T02:05:44;14.68;;;2.85;;
67274;SDS011;55463;52.324;5.122;2023-08-07T02:08:13;9.98;;;2.20;;
67274;SDS011;55463;52.324;5.122;2023-08-07T02:10:39;10.60;;;2.50;;
67274;SDS011;55463;52.324;5.122;2023-08-07T02:13:04;6.70;;;2.40;;
67274;SDS011;55463;52.324;5.122;2023-08-07T02:15:30;12.07;;;2.33;;
67274;SDS011;55463;52.324;5.122;2023-08-07T02:17:55;10.13;;;2.40;;
67274;SDS011;55463;52.324;5.122;2023-08-07T02:20:20;7.38;;;2.03;;
67274;SDS011;55463;52.324;5.122;2023-08-07T02:22:46;7.32;;;2.35;;
67274;SDS011;55463;52.324;5.122;2023-08-07T02:25:11;12.60;;;2.63;;
67274;SDS011;55463;52.324;5.122;2023-08-07T02:27:37;10.70;;;2.72;;
67274;SDS011;55463;52.324;5.122;2023-08-07T02:30:02;20.35;;;3.00;;
67274;SDS011;55463;52.324;5.122;2023-08-07T02:32:28;18.67;;;2.65;;
67274;SDS011;55463;52.324;5.122;2023-08-07T02:34:54;12.88;;;3.03;;
67274;SDS011;55463;52.324;5.122;2023-08-07T02:37:20;16.65;;;3.20;;
67274;SDS011;55463;52.324;5.122;2023-08-07T02:39:45;9.85;;;2.83;;
67274;SDS011;55463;52.324;5.122;2023-08-07T02:42:11;12.95;;;2.40;;
67274;SDS011;55463;52.324;5.122;2023-08-07T02:44:36;5.72;;;2.05;;
67274;SDS011;55463;52.324;5.122;2023-08-07T02:47:02;8.57;;;2.38;;
67274;SDS011;55463;52.324;5.122;2023-08-07T02:49:28;11.38;;;2.20;;
67274;SDS011;55463;52.324;5.122;2023-08-07T02:51:53;10.77;;;2.35;;
67274;SDS011;55463;52.324;5.122;2023-08-07T02:54:18;10.35;;;2.30;;
67274;SDS011;55463;52.324;5.122;2023-08-07T02:56:44;7.60;;;2.17;;
67274;SDS011;55463;52.324;5.122;2023-08-07T02:59:09;6.38;;;2.08;;
67274;SDS011;55463;52.324;5.122;2023-08-07T03:01:35;5.45;;;1.85;;
67274;SDS011;55463;52.324;5.122;2023-08-07T03:04:00;6.63;;;2.13;;
67274;SDS011;55463;52.324;5.122;2023-08-07T03:06:25;9.30;;;2.30;;
67274;SDS011;55463;52.324;5.122;2023-08-07T03:08:51;9.15;;;2.20;;
67274;SDS011;55463;52.324;5.122;2023-08-07T03:11:16;8.77;;;2.55;;
67274;SDS011;55463;52.324;5.122;2023-08-07T03:13:42;13.10;;;3.20;;
67274;SDS011;55463;52.324;5.122;2023-08-07T03:16:09;8.75;;;2.20;;
67274;SDS011;55463;52.324;5.122;2023-08-07T03:18:34;15.32;;;2.72;;
67274;SDS011;55463;52.324;5.122;2023-08-07T03:21:01;8.07;;;2.50;;
67274;SDS011;55463;52.324;5.122;2023-08-07T03:23:27;13.73;;;2.63;;
67274;SDS011;55463;52.324;5.122;2023-08-07T03:26:05;10.02;;;2.50;;
67274;SDS011;55463;52.324;5.122;2023-08-07T03:28:35;12.93;;;3.13;;
67274;SDS011;55463;52.324;5.122;2023-08-07T03:31:01;16.60;;;2.65;;
67274;SDS011;55463;52.324;5.122;2023-08-07T03:33:27;16.20;;;3.40;;
67274;SDS011;55463;52.324;5.122;2023-08-07T03:35:52;15.27;;;3.25;;
67274;SDS011;55463;52.324;5.122;2023-08-07T03:38:18;10.93;;;2.55;;
67274;SDS011;55463;52.324;5.122;2023-08-07T03:40:43;19.17;;;3.45;;
67274;SDS011;55463;52.324;5.122;2023-08-07T03:43:09;8.73;;;2.70;;
67274;SDS011;55463;52.324;5.122;2023-08-07T03:45:34;13.55;;;3.15;;
67274;SDS011;55463;52.324;5.122;2023-08-07T03:48:00;13.35;;;2.83;;
67274;SDS011;55463;52.324;5.122;2023-08-07T03:50:25;17.27;;;3.25;;
67274;SDS011;55463;52.324;5.122;2023-08-07T03:52:51;13.75;;;2.90;;
67274;SDS011;55463;52.324;5.122;2023-08-07T03:55:16;12.60;;;3.10;;
67274;SDS011;55463;52.324;5.122;2023-08-07T03:57:41;14.15;;;2.75;;
67274;SDS011;55463;52.324;5.122;2023-08-07T04:00:07;18.40;;;3.40;;
67274;SDS011;55463;52.324;5.122;2023-08-07T04:02:33;10.13;;;2.60;;
67274;SDS011;55463;52.324;5.122;2023-08-07T04:04:58;11.93;;;3.00;;
67274;SDS011;55463;52.324;5.122;2023-08-07T04:07:23;15.02;;;3.00;;
67274;SDS011;55463;52.324;5.122;2023-08-07T04:09:49;19.10;;;3.65;;
67274;SDS011;55463;52.324;5.122;2023-08-07T04:12:14;21.17;;;3.55;;
67274;SDS011;55463;52.324;5.122;2023-08-07T04:14:39;18.30;;;3.30;;
67274;SDS011;55463;52.324;5.122;2023-08-07T04:17:05;19.45;;;3.28;;
67274;SDS011;55463;52.324;5.122;2023-08-07T04:19:30;14.00;;;3.17;;
67274;SDS011;55463;52.324;5.122;2023-08-07T04:21:56;18.45;;;3.67;;
67274;SDS011;55463;52.324;5.122;2023-08-07T04:24:21;14.88;;;3.33;;
67274;SDS011;55463;52.324;5.122;2023-08-07T04:26:46;23.08;;;3.83;;
67274;SDS011;55463;52.324;5.122;2023-08-07T04:29:12;17.73;;;3.10;;
67274;SDS011;55463;52.324;5.122;2023-08-07T04:31:38;22.20;;;3.28;;
67274;SDS011;55463;52.324;5.122;2023-08-07T04:34:03;13.35;;;3.45;;
67274;SDS011;55463;52.324;5.122;2023-08-07T04:36:28;17.35;;;4.13;;
67274;SDS011;55463;52.324;5.122;2023-08-07T04:38:54;14.27;;;3.85;;
67274;SDS011;55463;52.324;5.122;2023-08-07T04:41:20;13.23;;;3.22;;
67274;SDS011;55463;52.324;5.122;2023-08-07T04:43:46;17.05;;;3.20;;
67274;SDS011;55463;52.324;5.122;2023-08-07T04:46:13;18.77;;;4.00;;
67274;SDS011;55463;52.324;5.122;2023-08-07T04:48:38;17.58;;;3.70;;
67274;SDS011;55463;52.324;5.122;2023-08-07T04:51:04;15.57;;;3.22;;
67274;SDS011;55463;52.324;5.122;2023-08-07T04:53:29;14.23;;;3.05;;
67274;SDS011;55463;52.324;5.122;2023-08-07T04:55:54;12.50;;;3.20;;
67274;SDS011;55463;52.324;5.122;2023-08-07T04:58:20;13.10;;;3.70;;
67274;SDS011;55463;52.324;5.122;2023-08-07T05:00:45;17.35;;;4.00;;
67274;SDS011;55463;52.324;5.122;2023-08-07T05:03:11;13.88;;;3.47;;
67274;SDS011;55463;52.324;5.122;2023-08-07T05:05:36;15.00;;;3.67;;
67274;SDS011;55463;52.324;5.122;2023-08-07T05:08:01;11.80;;;3.00;;
67274;SDS011;55463;52.324;5.122;2023-08-07T05:10:27;15.93;;;3.60;;
67274;SDS011;55463;52.324;5.122;2023-08-07T05:12:52;15.15;;;3.28;;
67274;SDS011;55463;52.324;5.122;2023-08-07T05:15:23;14.43;;;3.17;;
67274;SDS011;55463;52.324;5.122;2023-08-07T05:17:50;14.32;;;3.15;;
67274;SDS011;55463;52.324;5.122;2023-08-07T05:20:16;13.68;;;3.00;;
67274;SDS011;55463;52.324;5.122;2023-08-07T05:22:42;12.27;;;2.95;;
67274;SDS011;55463;52.324;5.122;2023-08-07T05:25:08;12.52;;;3.08;;
67274;SDS011;55463;52.324;5.122;2023-08-07T05:27:34;20.92;;;3.33;;
67274;SDS011;55463;52.324;5.122;2023-08-07T05:30:00;14.77;;;3.20;;
67274;SDS011;55463;52.324;5.122;2023-08-07T05:32:25;8.77;;;2.90;;
67274;SDS011;55463;52.324;5.122;2023-08-07T05:34:50;14.52;;;3.58;;
67274;SDS011;55463;52.324;5.122;2023-08-07T05:37:16;12.60;;;3.17;;
67274;SDS011;55463;52.324;5.122;2023-08-07T05:39:41;19.15;;;3.50;;
67274;SDS011;55463;52.324;5.122;2023-08-07T05:42:07;13.10;;;3.63;;
67274;SDS011;55463;52.324;5.122;2023-08-07T05:44:34;21.45;;;4.15;;
67274;SDS011;55463;52.324;5.122;2023-08-07T05:46:59;18.77;;;3.28;;
67274;SDS011;55463;52.324;5.122;2023-08-07T05:49:25;13.25;;;3.42;;
67274;SDS011;55463;52.324;5.122;2023-08-07T05:51:50;18.25;;;3.33;;
67274;SDS011;55463;52.324;5.122;2023-08-07T05:54:16;14.90;;;2.90;;
67274;SDS011;55463;52.324;5.122;2023-08-07T05:56:42;10.10;;;2.85;;
67274;SDS011;55463;52.324;5.122;2023-08-07T05:59:08;16.48;;;3.17;;
67274;SDS011;55463;52.324;5.122;2023-08-07T06:01:33;14.75;;;3.15;;
67274;SDS011;55463;52.324;5.122;2023-08-07T06:03:59;19.58;;;3.03;;
67274;SDS011;55463;52.324;5.122;2023-08-07T06:06:24;15.45;;;3.47;;
67274;SDS011;55463;52.324;5.122;2023-08-07T06:08:52;14.27;;;2.95;;
67274;SDS011;55463;52.324;5.122;2023-08-07T06:11:18;11.02;;;2.95;;
67274;SDS011;55463;52.324;5.122;2023-08-07T06:13:43;15.23;;;3.13;;
67274;SDS011;55463;52.324;5.122;2023-08-07T06:16:09;13.30;;;3.35;;
67274;SDS011;55463;52.324;5.122;2023-08-07T06:18:34;16.17;;;3.60;;
67274;SDS011;55463;52.324;5.122;2023-08-07T06:21:00;22.23;;;3.50;;
67274;SDS011;55463;52.324;5.122;2023-08-07T06:23:26;13.80;;;3.85;;
67274;SDS011;55463;52.324;5.122;2023-08-07T06:25:51;19.85;;;3.63;;
67274;SDS011;55463;52.324;5.122;2023-08-07T06:28:16;16.52;;;3.65;;
67274;SDS011;55463;52.324;5.122;2023-08-07T06:30:42;10.45;;;3.40;;
67274;SDS011;55463;52.324;5.122;2023-08-07T06:33:07;15.52;;;3.10;;
67274;SDS011;55463;52.324;5.122;2023-08-07T06:35:38;12.50;;;3.53;;
67274;SDS011;55463;52.324;5.122;2023-08-07T06:38:04;12.32;;;2.83;;
67274;SDS011;55463;52.324;5.122;2023-08-07T06:40:37;12.70;;;3.50;;
67274;SDS011;55463;52.324;5.122;2023-08-07T06:43:02;15.45;;;3.88;;
67274;SDS011;55463;52.324;5.122;2023-08-07T06:45:28;21.85;;;3.50;;
67274;SDS011;55463;52.324;5.122;2023-08-07T06:47:53;17.00;;;3.20;;
67274;SDS011;55463;52.324;5.122;2023-08-07T06:50:19;16.42;;;3.75;;
67274;SDS011;55463;52.324;5.122;2023-08-07T06:52:44;13.77;;;3.22;;
67274;SDS011;55463;52.324;5.122;2023-08-07T06:55:09;14.27;;;3.63;;
67274;SDS011;55463;52.324;5.122;2023-08-07T06:57:35;11.65;;;3.47;;
67274;SDS011;55463;52.324;5.122;2023-08-07T07:00:00;9.88;;;3.20;;
67274;SDS011;55463;52.324;5.122;2023-08-07T07:02:25;20.05;;;3.70;;
67274;SDS011;55463;52.324;5.122;2023-08-07T07:04:51;14.73;;;3.90;;
67274;SDS011;55463;52.324;5.122;2023-08-07T07:07:16;17.77;;;3.85;;
67274;SDS011;55463;52.324;5.122;2023-08-07T07:09:41;21.92;;;3.90;;
67274;SDS011;55463;52.324;5.122;2023-08-07T07:12:07;16.23;;;3.97;;
67274;SDS011;55463;52.324;5.122;2023-08-07T07:14:33;16.70;;;3.55;;
67274;SDS011;55463;52.324;5.122;2023-08-07T07:16:59;15.80;;;3.08;;
67274;SDS011;55463;52.324;5.122;2023-08-07T07:19:25;12.93;;;3.03;;
67274;SDS011;55463;52.324;5.122;2023-08-07T07:21:51;13.00;;;3.33;;
67274;SDS011;55463;52.324;5.122;2023-08-07T07:24:16;14.18;;;3.55;;
67274;SDS011;55463;52.324;5.122;2023-08-07T07:26:42;11.18;;;2.95;;
67274;SDS011;55463;52.324;5.122;2023-08-07T07:29:07;12.65;;;3.10;;
67274;SDS011;55463;52.324;5.122;2023-08-07T07:31:33;11.65;;;3.25;;
67274;SDS011;55463;52.324;5.122;2023-08-07T07:33:58;16.25;;;3.35;;
67274;SDS011;55463;52.324;5.122;2023-08-07T07:36:23;14.77;;;3.40;;
67274;SDS011;55463;52.324;5.122;2023-08-07T07:38:49;15.48;;;3.25;;
67274;SDS011;55463;52.324;5.122;2023-08-07T07:41:14;23.15;;;4.53;;
67274;SDS011;55463;52.324;5.122;2023-08-07T07:43:40;20.58;;;4.35;;
67274;SDS011;55463;52.324;5.122;2023-08-07T07:46:06;12.98;;;3.38;;
67274;SDS011;55463;52.324;5.122;2023-08-07T07:48:32;9.82;;;2.92;;
67274;SDS011;55463;52.324;5.122;2023-08-07T07:51:00;17.65;;;3.75;;
67274;SDS011;55463;52.324;5.122;2023-08-07T07:53:29;6.20;;;2.70;;
67274;SDS011;55463;52.324;5.122;2023-08-07T07:55:55;13.70;;;3.38;;
67274;SDS011;55463;52.324;5.122;2023-08-07T07:58:20;9.88;;;2.72;;
67274;SDS011;55463;52.324;5.122;2023-08-07T08:00:46;19.45;;;3.65;;
67274;SDS011;55463;52.324;5.122;2023-08-07T08:03:12;11.60;;;2.92;;
67274;SDS011;55463;52.324;5.122;2023-08-07T08:05:38;13.13;;;3.70;;
67274;SDS011;55463;52.324;5.122;2023-08-07T08:08:05;12.05;;;2.97;;
67274;SDS011;55463;52.324;5.122;2023-08-07T08:10:32;12.70;;;2.88;;
67274;SDS011;55463;52.324;5.122;2023-08-07T08:12:59;13.98;;;3.15;;
67274;SDS011;55463;52.324;5.122;2023-08-07T08:15:24;17.63;;;3.67;;
67274;SDS011;55463;52.324;5.122;2023-08-07T08:17:50;16.90;;;3.05;;
67274;SDS011;55463;52.324;5.122;2023-08-07T08:20:15;11.65;;;3.00;;
67274;SDS011;55463;52.324;5.122;2023-08-07T08:22:43;8.80;;;3.00;;
67274;SDS011;55463;52.324;5.122;2023-08-07T08:25:09;12.98;;;3.05;;
67274;SDS011;55463;52.324;5.122;2023-08-07T08:27:34;11.60;;;2.85;;
67274;SDS011;55463;52.324;5.122;2023-08-07T08:30:00;12.18;;;2.72;;
67274;SDS011;55463;52.324;5.122;2023-08-07T08:32:27;11.93;;;2.70;;
67274;SDS011;55463;52.324;5.122;2023-08-07T08:34:52;15.00;;;3.50;;
67274;SDS011;55463;52.324;5.122;2023-08-07T08:37:17;8.30;;;2.63;;
67274;SDS011;55463;52.324;5.122;2023-08-07T08:39:43;13.98;;;3.38;;
67274;SDS011;55463;52.324;5.122;2023-08-07T08:42:09;13.25;;;2.67;;
67274;SDS011;55463;52.324;5.122;2023-08-07T08:44:37;14.90;;;3.58;;
67274;SDS011;55463;52.324;5.122;2023-08-07T08:47:04;13.05;;;2.80;;
67274;SDS011;55463;52.324;5.122;2023-08-07T08:49:32;14.65;;;2.67;;
67274;SDS011;55463;52.324;5.122;2023-08-07T08:52:00;12.50;;;2.47;;
67274;SDS011;55463;52.324;5.122;2023-08-07T08:54:26;11.07;;;3.05;;
67274;SDS011;55463;52.324;5.122;2023-08-07T08:56:52;8.10;;;2.53;;
67274;SDS011;55463;52.324;5.122;2023-08-07T08:59:19;10.32;;;2.55;;
67274;SDS011;55463;52.324;5.122;2023-08-07T09:01:46;15.55;;;3.03;;
67274;SDS011;55463;52.324;5.122;2023-08-07T09:04:12;10.40;;;2.95;;
67274;SDS011;55463;52.324;5.122;2023-08-07T09:06:38;11.63;;;2.80;;
67274;SDS011;55463;52.324;5.122;2023-08-07T09:09:04;10.70;;;2.60;;
67274;SDS011;55463;52.324;5.122;2023-08-07T09:11:30;7.65;;;2.55;;
67274;SDS011;55463;52.324;5.122;2023-08-07T09:13:55;6.97;;;2.55;;
67274;SDS011;55463;52.324;5.122;2023-08-07T09:16:22;13.48;;;2.75;;
67274;SDS011;55463;52.324;5.122;2023-08-07T09:18:50;6.38;;;2.80;;
67274;SDS011;55463;52.324;5.122;2023-08-07T09:21:16;8.77;;;2.55;;
67274;SDS011;55463;52.324;5.122;2023-08-07T09:23:42;3.92;;;2.05;;
67274;SDS011;55463;52.324;5.122;2023-08-07T09:26:08;10.60;;;2.33;;
67274;SDS011;55463;52.324;5.122;2023-08-07T09:28:38;10.60;;;2.88;;
67274;SDS011;55463;52.324;5.122;2023-08-07T09:31:05;9.52;;;2.65;;
67274;SDS011;55463;52.324;5.122;2023-08-07T09:33:33;10.50;;;2.75;;
67274;SDS011;55463;52.324;5.122;2023-08-07T09:35:59;12.48;;;3.35;;
67274;SDS011;55463;52.324;5.122;2023-08-07T09:38:30;6.45;;;2.80;;
67274;SDS011;55463;52.324;5.122;2023-08-07T09:41:00;8.45;;;2.75;;
67274;SDS011;55463;52.324;5.122;2023-08-07T09:43:28;7.75;;;2.38;;
67274;SDS011;55463;52.324;5.122;2023-08-07T09:46:01;12.48;;;2.78;;
67274;SDS011;55463;52.324;5.122;2023-08-07T09:48:30;11.38;;;2.60;;
67274;SDS011;55463;52.324;5.122;2023-08-07T09:51:00;6.85;;;2.40;;
67274;SDS011;55463;52.324;5.122;2023-08-07T09:53:27;13.05;;;2.70;;
67274;SDS011;55463;52.324;5.122;2023-08-07T09:55:55;10.90;;;2.70;;
67274;SDS011;55463;52.324;5.122;2023-08-07T09:58:22;7.03;;;2.42;;
67274;SDS011;55463;52.324;5.122;2023-08-07T10:00:49;11.18;;;2.80;;
67274;SDS011;55463;52.324;5.122;2023-08-07T10:03:15;10.38;;;2.72;;
67274;SDS011;55463;52.324;5.122;2023-08-07T10:05:42;8.55;;;2.83;;
67274;SDS011;55463;52.324;5.122;2023-08-07T10:08:08;8.63;;;2.80;;
67274;SDS011;55463;52.324;5.122;2023-08-07T10:10:35;10.52;;;2.60;;
67274;SDS011;55463;52.324;5.122;2023-08-07T10:13:02;14.60;;;3.15;;
67274;SDS011;55463;52.324;5.122;2023-08-07T10:15:28;11.48;;;3.00;;
67274;SDS011;55463;52.324;5.122;2023-08-07T10:17:56;10.60;;;3.00;;
67274;SDS011;55463;52.324;5.122;2023-08-07T10:20:21;9.13;;;2.83;;
67274;SDS011;55463;52.324;5.122;2023-08-07T10:22:49;14.70;;;3.28;;
67274;SDS011;55463;52.324;5.122;2023-08-07T10:25:17;13.43;;;2.88;;
67274;SDS011;55463;52.324;5.122;2023-08-07T10:27:46;9.70;;;2.58;;
67274;SDS011;55463;52.324;5.122;2023-08-07T10:30:13;10.98;;;2.90;;
67274;SDS011;55463;52.324;5.122;2023-08-07T10:32:42;10.77;;;3.03;;
67274;SDS011;55463;52.324;5.122;2023-08-07T10:35:09;11.25;;;2.90;;
67274;SDS011;55463;52.324;5.122;2023-08-07T10:40:03;12.13;;;2.90;;
67274;SDS011;55463;52.324;5.122;2023-08-07T10:45:19;9.35;;;3.00;;
67274;SDS011;55463;52.324;5.122;2023-08-07T10:56:09;14.23;;;3.50;;
67274;SDS011;55463;52.324;5.122;2023-08-07T10:58:37;11.93;;;3.28;;
67274;SDS011;55463;52.324;5.122;2023-08-07T11:01:19;9.65;;;2.83;;
67274;SDS011;55463;52.324;5.122;2023-08-07T11:03:48;11.75;;;2.75;;
67274;SDS011;55463;52.324;5.122;2023-08-07T11:08:53;8.98;;;2.55;;
67274;SDS011;55463;52.324;5.122;2023-08-07T11:11:19;8.75;;;2.50;;
67274;SDS011;55463;52.324;5.122;2023-08-07T11:13:45;8.40;;;2.53;;
67274;SDS011;55463;52.324;5.122;2023-08-07T11:16:11;8.30;;;2.05;;
67274;SDS011;55463;52.324;5.122;2023-08-07T11:18:37;5.75;;;2.47;;
67274;SDS011;55463;52.324;5.122;2023-08-07T11:21:06;8.98;;;2.45;;
67274;SDS011;55463;52.324;5.122;2023-08-07T11:23:36;6.97;;;2.35;;
67274;SDS011;55463;52.324;5.122;2023-08-07T11:26:02;4.85;;;1.77;;
67274;SDS011;55463;52.324;5.122;2023-08-07T11:28:28;8.35;;;2.10;;
67274;SDS011;55463;52.324;5.122;2023-08-07T11:30:54;4.78;;;1.77;;
67274;SDS011;55463;52.324;5.122;2023-08-07T11:33:23;3.92;;;1.70;;
67274;SDS011;55463;52.324;5.122;2023-08-07T11:35:50;2.65;;;1.70;;
67274;SDS011;55463;52.324;5.122;2023-08-07T11:41:03;6.65;;;2.10;;
67274;SDS011;55463;52.324;5.122;2023-08-07T11:43:30;4.80;;;1.73;;
67274;SDS011;55463;52.324;5.122;2023-08-07T11:45:57;7.22;;;2.00;;
67274;SDS011;55463;52.324;5.122;2023-08-07T11:48:24;6.93;;;2.22;;
67274;SDS011;55463;52.324;5.122;2023-08-07T11:50:54;7.00;;;2.30;;
67274;SDS011;55463;52.324;5.122;2023-08-07T11:53:21;3.90;;;1.92;;
67274;SDS011;55463;52.324;5.122;2023-08-07T11:56:07;5.90;;;2.00;;
67274;SDS011;55463;52.324;5.122;2023-08-07T11:58:40;5.47;;;1.92;;
67274;SDS011;55463;52.324;5.122;2023-08-07T12:01:13;4.93;;;2.20;;
67274;SDS011;55463;52.324;5.122;2023-08-07T12:06:15;6.85;;;2.75;;
67274;SDS011;55463;52.324;5.122;2023-08-07T12:08:41;6.63;;;1.90;;
67274;SDS011;55463;52.324;5.122;2023-08-07T12:11:08;7.50;;;2.17;;
67274;SDS011;55463;52.324;5.122;2023-08-07T12:13:39;11.55;;;2.45;;
67274;SDS011;55463;52.324;5.122;2023-08-07T12:16:06;6.45;;;2.00;;
67274;SDS011;55463;52.324;5.122;2023-08-07T12:18:33;8.20;;;2.47;;
67274;SDS011;55463;52.324;5.122;2023-08-07T12:21:01;4.88;;;1.80;;
67274;SDS011;55463;52.324;5.122;2023-08-07T12:23:29;6.05;;;1.98;;
67274;SDS011;55463;52.324;5.122;2023-08-07T12:25:54;7.38;;;2.10;;
67274;SDS011;55463;52.324;5.122;2023-08-07T12:28:20;6.65;;;2.65;;
67274;SDS011;55463;52.324;5.122;2023-08-07T12:30:46;6.95;;;2.13;;
67274;SDS011;55463;52.324;5.122;2023-08-07T12:33:12;5.25;;;2.10;;
67274;SDS011;55463;52.324;5.122;2023-08-07T12:35:38;6.65;;;2.55;;
67274;SDS011;55463;52.324;5.122;2023-08-07T12:38:03;4.95;;;2.30;;
67274;SDS011;55463;52.324;5.122;2023-08-07T12:40:30;4.47;;;1.80;;
67274;SDS011;55463;52.324;5.122;2023-08-07T12:42:57;6.68;;;2.35;;
67274;SDS011;55463;52.324;5.122;2023-08-07T12:45:23;2.33;;;1.77;;
67274;SDS011;55463;52.324;5.122;2023-08-07T12:47:49;3.83;;;1.67;;
67274;SDS011;55463;52.324;5.122;2023-08-07T12:50:14;5.68;;;2.17;;
67274;SDS011;55463;52.324;5.122;2023-08-07T12:52:40;4.60;;;1.83;;
67274;SDS011;55463;52.324;5.122;2023-08-07T12:55:06;6.25;;;2.10;;
67274;SDS011;55463;52.324;5.122;2023-08-07T12:57:32;5.03;;;2.30;;
67274;SDS011;55463;52.324;5.122;2023-08-07T12:59:58;5.57;;;1.77;;
67274;SDS011;55463;52.324;5.122;2023-08-07T13:02:23;7.45;;;2.10;;
67274;SDS011;55463;52.324;5.122;2023-08-07T13:04:48;6.40;;;1.90;;
67274;SDS011;55463;52.324;5.122;2023-08-07T13:07:14;4.13;;;1.80;;
67274;SDS011;55463;52.324;5.122;2023-08-07T13:09:39;7.00;;;1.95;;
67274;SDS011;55463;52.324;5.122;2023-08-07T13:12:05;6.32;;;1.90;;
67274;SDS011;55463;52.324;5.122;2023-08-07T13:14:30;5.75;;;2.17;;
67274;SDS011;55463;52.324;5.122;2023-08-07T13:16:56;10.75;;;2.15;;
67274;SDS011;55463;52.324;5.122;2023-08-07T13:19:21;6.03;;;1.92;;
67274;SDS011;55463;52.324;5.122;2023-08-07T13:21:47;9.15;;;2.38;;
67274;SDS011;55463;52.324;5.122;2023-08-07T13:24:14;5.63;;;1.80;;
67274;SDS011;55463;52.324;5.122;2023-08-07T13:26:40;7.32;;;2.13;;
67274;SDS011;55463;52.324;5.122;2023-08-07T13:29:13;4.90;;;1.80;;
67274;SDS011;55463;52.324;5.122;2023-08-07T13:31:41;6.72;;;1.80;;
67274;SDS011;55463;52.324;5.122;2023-08-07T13:34:06;2.88;;;1.70;;
67274;SDS011;55463;52.324;5.122;2023-08-07T13:36:35;5.68;;;2.15;;
67274;SDS011;55463;52.324;5.122;2023-08-07T13:39:02;4.93;;;1.63;;
67274;SDS011;55463;52.324;5.122;2023-08-07T13:41:28;3.38;;;1.58;;
67274;SDS011;55463;52.324;5.122;2023-08-07T13:43:53;6.75;;;1.90;;
67274;SDS011;55463;52.324;5.122;2023-08-07T13:46:21;5.78;;;1.98;;
67274;SDS011;55463;52.324;5.122;2023-08-07T13:48:47;18.33;;;2.72;;
67274;SDS011;55463;52.324;5.122;2023-08-07T13:51:13;12.00;;;2.45;;
67274;SDS011;55463;52.324;5.122;2023-08-07T13:53:43;4.72;;;1.85;;
67274;SDS011;55463;52.324;5.122;2023-08-07T13:56:09;8.60;;;2.25;;
67274;SDS011;55463;52.324;5.122;2023-08-07T13:58:37;4.15;;;1.60;;
67274;SDS011;55463;52.324;5.122;2023-08-07T14:01:03;3.42;;;1.65;;
67274;SDS011;55463;52.324;5.122;2023-08-07T14:03:29;7.00;;;2.00;;
67274;SDS011;55463;52.324;5.122;2023-08-07T14:05:55;3.78;;;1.77;;
67274;SDS011;55463;52.324;5.122;2023-08-07T14:08:20;5.18;;;1.90;;
67274;SDS011;55463;52.324;5.122;2023-08-07T14:10:46;6.35;;;1.83;;
67274;SDS011;55463;52.324;5.122;2023-08-07T14:13:11;3.95;;;1.70;;
67274;SDS011;55463;52.324;5.122;2023-08-07T14:15:36;6.70;;;1.92;;
67274;SDS011;55463;52.324;5.122;2023-08-07T14:18:02;4.13;;;1.88;;
67274;SDS011;55463;52.324;5.122;2023-08-07T14:20:27;4.78;;;2.10;;
67274;SDS011;55463;52.324;5.122;2023-08-07T14:22:53;7.50;;;2.30;;
67274;SDS011;55463;52.324;5.122;2023-08-07T14:25:18;7.88;;;2.50;;
67274;SDS011;55463;52.324;5.122;2023-08-07T14:27:46;8.23;;;2.15;;
67274;SDS011;55463;52.324;5.122;2023-08-07T14:30:12;4.35;;;1.77;;
67274;SDS011;55463;52.324;5.122;2023-08-07T14:32:37;2.90;;;1.50;;
67274;SDS011;55463;52.324;5.122;2023-08-07T14:35:03;3.22;;;1.70;;
67274;SDS011;55463;52.324;5.122;2023-08-07T14:37:29;5.72;;;2.00;;
67274;SDS011;55463;52.324;5.122;2023-08-07T14:39:54;5.22;;;1.70;;
67274;SDS011;55463;52.324;5.122;2023-08-07T14:42:19;7.32;;;2.17;;
67274;SDS011;55463;52.324;5.122;2023-08-07T14:44:45;6.30;;;2.28;;
67274;SDS011;55463;52.324;5.122;2023-08-07T14:47:10;7.35;;;2.30;;
67274;SDS011;55463;52.324;5.122;2023-08-07T14:49:35;7.68;;;2.00;;
67274;SDS011;55463;52.324;5.122;2023-08-07T14:52:01;4.88;;;2.28;;
67274;SDS011;55463;52.324;5.122;2023-08-07T14:54:26;4.05;;;2.17;;
67274;SDS011;55463;52.324;5.122;2023-08-07T14:56:52;5.00;;;2.28;;
67274;SDS011;55463;52.324;5.122;2023-08-07T14:59:17;5.90;;;2.20;;
67274;SDS011;55463;52.324;5.122;2023-08-07T15:01:42;5.13;;;2.38;;